createdAt,value
2023-06-22T00:02:56.576Z,12.53
2023-06-22T00:05:59.060Z,13.52
2023-06-22T00:09:01.461Z,13.02
2023-06-22T00:12:04.146Z,12.95
2023-06-22T00:15:06.962Z,12.85
2023-06-22T00:18:09.661Z,13.77
2023-06-22T00:21:13.715Z,13.88
2023-06-22T00:24:16.104Z,13.90
2023-06-22T00:27:18.505Z,14.52
2023-06-22T00:30:20.878Z,15.25
2023-06-22T00:33:23.261Z,14.43
2023-06-22T00:36:25.966Z,13.68
2023-06-22T00:39:28.332Z,15.43
2023-06-22T00:42:30.812Z,16.10
2023-06-22T00:45:33.251Z,16.60
2023-06-22T00:48:37.825Z,17.70
2023-06-22T00:51:40.821Z,17.65
2023-06-22T00:54:46.623Z,18.17
2023-06-22T00:57:49.190Z,18.10
2023-06-22T01:00:52.702Z,18.83
2023-06-22T01:03:58.776Z,18.87
2023-06-22T01:07:12.048Z,18.25
2023-06-22T01:10:26.555Z,18.98
2023-06-22T01:13:41.029Z,18.13
2023-06-22T01:16:45.161Z,19.83
2023-06-22T01:19:59.849Z,19.33
2023-06-22T01:23:20.880Z,18.48
2023-06-22T01:26:44.937Z,19.30
2023-06-22T01:29:47.309Z,19.90
2023-06-22T01:32:49.858Z,21.27
2023-06-22T01:35:52.284Z,19.30
2023-06-22T01:38:54.822Z,19.17
2023-06-22T01:41:57.176Z,19.48
2023-06-22T01:44:59.577Z,19.42
2023-06-22T01:48:02.028Z,18.90
2023-06-22T01:51:04.523Z,19.07
2023-06-22T01:54:07.540Z,19.17
2023-06-22T01:57:11.684Z,20.55
2023-06-22T02:00:17.051Z,20.13
2023-06-22T02:03:24.697Z,19.50
2023-06-22T02:06:38.866Z,17.90
2023-06-22T02:09:41.954Z,19.38
2023-06-22T02:12:44.524Z,15.95
2023-06-22T02:15:46.931Z,14.95
2023-06-22T02:18:52.170Z,14.82
2023-06-22T02:21:54.534Z,14.40
2023-06-22T02:24:57.497Z,13.35
2023-06-22T02:28:01.380Z,14.15
2023-06-22T02:31:03.631Z,13.38
2023-06-22T02:34:05.905Z,13.38
2023-06-22T02:37:08.318Z,13.63
2023-06-22T02:40:11.462Z,13.43
2023-06-22T02:43:14.179Z,13.30
2023-06-22T02:46:16.617Z,13.35
2023-06-22T02:49:19.863Z,13.32
2023-06-22T02:52:22.642Z,14.57
2023-06-22T02:55:25.021Z,13.63
2023-06-22T02:58:39.381Z,14.65
2023-06-22T03:01:45.093Z,14.80
2023-06-22T03:04:58.745Z,15.77
2023-06-22T03:08:01.207Z,15.73
2023-06-22T03:11:07.027Z,15.23
2023-06-22T03:14:09.370Z,14.68
2023-06-22T03:17:12.507Z,14.70
2023-06-22T03:20:14.970Z,15.57
2023-06-22T03:23:17.479Z,15.67
2023-06-22T03:26:20.135Z,16.23
2023-06-22T03:29:22.574Z,16.85
2023-06-22T03:32:26.590Z,16.83
2023-06-22T03:35:29.129Z,17.25
2023-06-22T03:38:31.965Z,16.80
2023-06-22T03:41:34.327Z,16.90
2023-06-22T03:44:37.623Z,17.02
2023-06-22T03:47:42.249Z,16.38
2023-06-22T03:50:45.209Z,16.85
2023-06-22T03:53:47.683Z,17.10
2023-06-22T03:56:50.036Z,16.73
2023-06-22T03:59:52.364Z,18.52
2023-06-22T04:02:54.777Z,17.60
2023-06-22T04:05:57.200Z,17.20
2023-06-22T04:08:59.531Z,16.60
2023-06-22T04:12:02.896Z,16.63
2023-06-22T04:15:05.761Z,16.95
2023-06-22T04:18:08.170Z,16.98
2023-06-22T04:21:11.590Z,16.95
2023-06-22T04:24:13.977Z,15.57
2023-06-22T04:27:16.364Z,14.88
2023-06-22T04:30:19.073Z,16.27
2023-06-22T04:33:21.512Z,16.98
2023-06-22T04:36:26.093Z,16.33
2023-06-22T04:39:28.816Z,16.60
2023-06-22T04:42:31.596Z,15.93
2023-06-22T04:45:34.281Z,16.23
2023-06-22T04:48:36.624Z,16.08
2023-06-22T04:51:42.458Z,16.17
2023-06-22T04:54:51.899Z,16.53
2023-06-22T04:57:54.516Z,15.73
2023-06-22T05:00:58.279Z,16.17
2023-06-22T05:04:02.522Z,16.15
2023-06-22T05:07:05.332Z,17.27
2023-06-22T05:10:08.123Z,17.03
2023-06-22T05:13:10.522Z,16.08
2023-06-22T05:16:12.913Z,16.08
2023-06-22T05:19:15.296Z,16.63
2023-06-22T05:22:17.729Z,18.20
2023-06-22T05:25:20.439Z,16.23
2023-06-22T05:28:24.277Z,16.45
2023-06-22T05:31:26.958Z,16.45
2023-06-22T05:34:29.484Z,15.25
2023-06-22T05:37:31.866Z,17.23
2023-06-22T05:40:34.253Z,16.93
2023-06-22T05:43:36.636Z,15.93
2023-06-22T05:46:45.414Z,16.27
2023-06-22T05:49:47.972Z,15.93
2023-06-22T05:52:50.343Z,15.98
2023-06-22T05:55:53.070Z,17.00
2023-06-22T05:58:55.446Z,16.20
2023-06-22T06:01:57.823Z,16.40
2023-06-22T06:05:00.187Z,16.67
2023-06-22T06:08:03.005Z,16.83
2023-06-22T06:11:05.359Z,16.37
2023-06-22T06:14:07.743Z,15.40
2023-06-22T06:17:10.106Z,16.55
2023-06-22T06:20:13.290Z,16.33
2023-06-22T06:23:15.636Z,16.50
2023-06-22T06:26:18.230Z,15.50
2023-06-22T06:29:20.623Z,17.02
2023-06-22T06:32:23.124Z,17.95
2023-06-22T06:35:25.554Z,16.98
2023-06-22T06:38:27.945Z,17.23
2023-06-22T06:41:30.353Z,16.80
2023-06-22T06:44:32.754Z,16.90
2023-06-22T06:47:35.435Z,18.45
2023-06-22T06:50:37.844Z,16.52
2023-06-22T06:53:40.293Z,16.23
2023-06-22T06:56:46.078Z,17.20
2023-06-22T06:59:48.469Z,17.17
2023-06-22T07:02:50.982Z,17.98
2023-06-22T07:05:53.372Z,16.50
2023-06-22T07:08:56.630Z,17.15
2023-06-22T07:11:58.965Z,17.10
2023-06-22T07:15:12.844Z,16.80
2023-06-22T07:18:15.289Z,17.38
2023-06-22T07:21:17.695Z,16.00
2023-06-22T07:24:21.037Z,16.95
2023-06-22T07:27:23.408Z,16.73
2023-06-22T07:30:25.982Z,18.33
2023-06-22T07:33:28.967Z,17.95
2023-06-22T07:36:31.382Z,15.98
2023-06-22T07:39:33.879Z,17.60
2023-06-22T07:42:36.253Z,16.87
2023-06-22T07:45:41.460Z,17.08
2023-06-22T07:48:45.051Z,17.88
2023-06-22T07:51:47.406Z,18.13
2023-06-22T07:54:49.744Z,18.35
2023-06-22T07:57:53.318Z,17.70
2023-06-22T08:00:55.750Z,17.52
2023-06-22T08:03:58.118Z,17.20
2023-06-22T08:07:00.573Z,17.73
2023-06-22T08:10:03.724Z,15.88
2023-06-22T08:13:06.271Z,16.47
2023-06-22T08:16:08.834Z,16.08
2023-06-22T08:19:11.224Z,16.27
2023-06-22T08:22:13.544Z,16.60
2023-06-22T08:25:15.997Z,15.63
2023-06-22T08:28:18.445Z,16.17
2023-06-22T08:31:20.981Z,15.25
2023-06-22T08:34:24.031Z,15.88
2023-06-22T08:37:31.508Z,15.32
2023-06-22T08:40:33.927Z,15.98
2023-06-22T08:43:36.319Z,14.57
2023-06-22T08:46:40.124Z,14.93
2023-06-22T08:49:42.516Z,15.48
2023-06-22T08:52:45.005Z,15.27
2023-06-22T08:55:47.420Z,14.23
2023-06-22T08:58:49.796Z,13.77
2023-06-22T09:01:52.225Z,13.70
2023-06-22T09:04:57.040Z,14.45
2023-06-22T09:07:59.898Z,14.20
2023-06-22T09:11:02.278Z,14.55
2023-06-22T09:14:05.428Z,13.37
2023-06-22T09:17:07.821Z,14.48
2023-06-22T09:20:12.229Z,13.90
2023-06-22T09:23:14.695Z,14.18
2023-06-22T09:26:17.293Z,14.57
2023-06-22T09:29:19.755Z,13.90
2023-06-22T09:32:22.102Z,14.65
2023-06-22T09:35:24.438Z,13.18
2023-06-22T09:38:26.967Z,13.30
2023-06-22T09:41:29.352Z,12.63
2023-06-22T09:44:31.706Z,12.63
2023-06-22T09:47:34.167Z,13.02
2023-06-22T09:50:37.720Z,12.43
2023-06-22T09:53:40.119Z,12.07
2023-06-22T09:56:42.474Z,12.77
2023-06-22T09:59:44.874Z,12.17
2023-06-22T10:02:47.742Z,12.18
2023-06-22T10:05:50.686Z,12.60
2023-06-22T10:08:53.135Z,11.60
2023-06-22T10:11:55.555Z,12.38
2023-06-22T10:14:57.923Z,13.37
2023-06-22T10:18:00.818Z,13.48
2023-06-22T10:21:03.293Z,11.60
2023-06-22T10:24:08.621Z,11.40
2023-06-22T10:27:14.627Z,12.40
2023-06-22T10:30:17.324Z,11.67
2023-06-22T10:33:20.129Z,11.88
2023-06-22T10:36:23.155Z,11.77
2023-06-22T10:39:25.487Z,12.00
2023-06-22T10:42:27.896Z,12.55
2023-06-22T10:45:30.693Z,13.17
2023-06-22T10:48:33.291Z,12.90
2023-06-22T10:51:35.766Z,11.77
2023-06-22T10:54:38.803Z,11.20
2023-06-22T10:57:44.811Z,10.77
2023-06-22T11:00:47.354Z,10.97
2023-06-22T11:03:49.739Z,10.60
2023-06-22T11:06:52.182Z,11.50
2023-06-22T11:09:54.535Z,10.48
2023-06-22T11:12:58.990Z,11.10
2023-06-22T11:16:01.446Z,10.90
2023-06-22T11:19:05.500Z,11.20
2023-06-22T11:22:07.881Z,11.13
2023-06-22T11:25:10.422Z,12.07
2023-06-22T11:28:12.897Z,10.95
2023-06-22T11:34:20.907Z,11.00
2023-06-22T11:37:23.243Z,11.45
2023-06-22T11:40:25.617Z,10.43
2023-06-22T11:43:28.141Z,11.70
2023-06-22T11:46:30.592Z,10.80
2023-06-22T11:49:32.957Z,10.30
2023-06-22T11:52:37.082Z,11.60
2023-06-22T11:55:39.504Z,10.73
2023-06-22T11:58:41.872Z,9.68
2023-06-22T12:01:44.205Z,10.57
2023-06-22T12:04:47.613Z,9.98
2023-06-22T12:07:50.088Z,9.68
2023-06-22T12:10:52.986Z,10.52
2023-06-22T12:13:55.546Z,9.70
2023-06-22T12:16:58.151Z,10.03
2023-06-22T12:20:00.589Z,9.98
2023-06-22T12:23:02.968Z,11.00
2023-06-22T12:26:05.356Z,10.10
2023-06-22T12:29:07.720Z,10.23
2023-06-22T12:32:10.096Z,10.80
2023-06-22T12:35:15.159Z,10.20
2023-06-22T12:38:17.733Z,10.40
2023-06-22T12:41:20.149Z,10.07
2023-06-22T12:44:22.591Z,10.15
2023-06-22T12:47:25.029Z,10.20
2023-06-22T12:50:27.648Z,9.60
2023-06-22T12:53:30.173Z,9.20
2023-06-22T12:56:32.643Z,9.60
2023-06-22T12:59:35.013Z,9.70
2023-06-22T13:02:38.376Z,8.63
2023-06-22T13:05:40.875Z,8.93
2023-06-22T13:11:48.734Z,8.77
2023-06-22T13:14:51.095Z,9.20
2023-06-22T13:17:53.599Z,9.43
2023-06-22T13:20:56.035Z,8.57
2023-06-22T13:23:58.970Z,9.15
2023-06-22T13:27:01.357Z,9.13
2023-06-22T13:30:04.025Z,9.43
2023-06-22T13:33:06.467Z,9.50
2023-06-22T13:36:09.057Z,9.65
2023-06-22T13:39:11.438Z,8.38
2023-06-22T13:42:13.788Z,9.07
2023-06-22T13:45:18.418Z,9.32
2023-06-22T13:48:20.797Z,8.83
2023-06-22T13:51:23.187Z,7.97
2023-06-22T13:54:30.094Z,7.90
2023-06-22T13:57:32.987Z,8.73
2023-06-22T14:00:35.378Z,9.48
2023-06-22T14:03:37.931Z,9.27
2023-06-22T14:06:40.292Z,9.25
2023-06-22T14:09:42.663Z,9.40
2023-06-22T14:12:45.915Z,9.27
2023-06-22T14:15:49.425Z,9.50
2023-06-22T14:18:52.369Z,9.43
2023-06-22T14:21:55.837Z,10.02
2023-06-22T14:24:59.917Z,9.70
2023-06-22T14:28:02.378Z,10.05
2023-06-22T14:31:04.980Z,9.70
2023-06-22T14:34:07.558Z,9.70
2023-06-22T14:37:14.142Z,9.35
2023-06-22T14:40:16.667Z,10.52
2023-06-22T14:43:19.063Z,9.90
2023-06-22T14:46:21.793Z,10.10
2023-06-22T14:49:24.419Z,10.40
2023-06-22T14:52:26.985Z,10.02
2023-06-22T14:55:29.428Z,10.07
2023-06-22T14:58:34.429Z,10.48
2023-06-22T15:01:37.058Z,10.32
2023-06-22T15:04:39.569Z,9.93
2023-06-22T15:07:42.038Z,10.30
2023-06-22T15:10:44.465Z,10.02
2023-06-22T15:13:46.886Z,10.05
2023-06-22T15:16:49.350Z,10.30
2023-06-22T15:19:51.709Z,11.00
2023-06-22T15:22:54.132Z,11.32
2023-06-22T15:25:57.219Z,10.98
2023-06-22T15:28:59.572Z,11.05
2023-06-22T15:32:02.205Z,10.93
2023-06-22T15:35:05.047Z,11.27
2023-06-22T15:38:07.419Z,10.65
2023-06-22T15:41:09.822Z,10.95
2023-06-22T15:44:12.242Z,11.25
2023-06-22T15:47:14.604Z,10.98
2023-06-22T15:50:17.045Z,10.87
2023-06-22T15:53:19.452Z,11.32
2023-06-22T15:56:22.246Z,11.63
2023-06-22T15:59:24.948Z,11.82
2023-06-22T16:02:28.350Z,12.60
2023-06-22T16:05:30.818Z,11.07
2023-06-22T16:08:34.778Z,12.30
2023-06-22T16:11:37.234Z,11.98
2023-06-22T16:14:41.753Z,12.00
2023-06-22T16:17:44.120Z,11.43
2023-06-22T16:20:47.435Z,11.93
2023-06-22T16:23:49.809Z,12.43
2023-06-22T16:26:52.211Z,12.10
2023-06-22T16:29:54.622Z,11.95
2023-06-22T16:33:00.562Z,12.10
2023-06-22T16:36:03.185Z,11.43
2023-06-22T16:39:05.839Z,12.30
2023-06-22T16:42:08.343Z,11.93
2023-06-22T16:45:10.788Z,12.60
2023-06-22T16:48:13.380Z,12.93
2023-06-22T16:51:15.799Z,11.87
2023-06-22T16:54:18.167Z,12.18
2023-06-22T16:57:20.686Z,13.48
2023-06-22T17:00:23.332Z,12.70
2023-06-22T17:03:34.344Z,12.57
2023-06-22T17:06:39.062Z,12.97
2023-06-22T17:09:41.681Z,12.77
2023-06-22T17:12:44.025Z,13.15
2023-06-22T17:15:46.814Z,12.48
2023-06-22T17:18:50.786Z,13.32
2023-06-22T17:21:53.302Z,13.17
2023-06-22T17:24:55.784Z,13.15
2023-06-22T17:28:04.552Z,12.18
2023-06-22T17:31:11.306Z,13.05
2023-06-22T17:34:16.213Z,12.95
2023-06-22T17:37:18.624Z,12.13
2023-06-22T17:40:22.431Z,13.50
2023-06-22T17:43:24.825Z,13.02
2023-06-22T17:46:27.325Z,13.65
2023-06-22T17:49:30.704Z,13.10
2023-06-22T17:52:33.143Z,12.90
2023-06-22T17:55:35.472Z,12.05
2023-06-22T17:58:37.860Z,12.38
2023-06-22T18:01:40.356Z,12.20
2023-06-22T18:04:43.788Z,12.23
2023-06-22T18:07:46.184Z,12.40
2023-06-22T18:10:48.604Z,12.95
2023-06-22T18:13:50.977Z,11.32
2023-06-22T18:16:53.636Z,11.98
2023-06-22T18:20:00.969Z,11.90
2023-06-22T18:23:03.362Z,12.17
2023-06-22T18:26:05.795Z,11.98
2023-06-22T18:29:08.265Z,11.77
2023-06-22T18:32:10.669Z,12.00
2023-06-22T18:35:13.068Z,12.25
2023-06-22T18:38:15.426Z,12.13
2023-06-22T18:41:37.519Z,12.57
2023-06-22T18:44:43.204Z,12.48
2023-06-22T18:47:46.379Z,12.75
2023-06-22T18:50:50.291Z,11.75
2023-06-22T18:54:03.619Z,12.83
2023-06-22T18:57:25.644Z,12.57
2023-06-22T19:00:33.841Z,12.60
2023-06-22T19:03:36.417Z,15.93
2023-06-22T19:06:54.159Z,16.92
2023-06-22T19:10:22.510Z,13.57
2023-06-22T19:13:25.019Z,12.52
2023-06-22T19:16:30.561Z,12.45
2023-06-22T19:19:36.027Z,11.75
2023-06-22T19:22:48.044Z,12.65
2023-06-22T19:25:50.503Z,13.27
2023-06-22T19:28:57.614Z,14.55
2023-06-22T19:32:00.129Z,14.90
2023-06-22T19:35:03.049Z,13.35
2023-06-22T19:38:05.693Z,13.85
2023-06-22T19:41:08.899Z,12.90
2023-06-22T19:44:11.393Z,14.13
2023-06-22T19:47:14.203Z,14.32
2023-06-22T19:50:18.032Z,14.13
2023-06-22T19:53:20.434Z,12.77
2023-06-22T19:56:23.004Z,13.33
2023-06-22T19:59:26.551Z,13.07
2023-06-22T20:02:30.369Z,13.75
2023-06-22T20:05:34.924Z,13.25
2023-06-22T20:08:50.779Z,13.95
2023-06-22T20:11:57.315Z,14.87
2023-06-22T20:15:15.085Z,14.27
2023-06-22T20:18:17.473Z,14.73
2023-06-22T20:21:19.872Z,13.95
2023-06-22T20:24:23.197Z,16.40
2023-06-22T20:27:26.532Z,15.90
2023-06-22T20:30:29.057Z,16.35
2023-06-22T20:33:32.087Z,16.38
2023-06-22T20:36:34.517Z,15.18
2023-06-22T20:39:37.453Z,15.10
2023-06-22T20:42:39.944Z,14.73
2023-06-22T20:45:42.334Z,16.77
2023-06-22T20:48:45.563Z,15.68
2023-06-22T20:51:47.962Z,15.05
2023-06-22T20:54:50.471Z,16.17
2023-06-22T20:57:53.293Z,16.30
2023-06-22T21:01:01.659Z,15.45
2023-06-22T21:04:04.443Z,15.35
2023-06-22T21:07:07.026Z,14.45
2023-06-22T21:10:09.844Z,14.25
2023-06-22T21:13:12.227Z,14.10
2023-06-22T21:16:14.791Z,15.50
2023-06-22T21:19:17.225Z,15.75
2023-06-22T21:22:20.196Z,14.85
2023-06-22T21:25:22.579Z,14.00
2023-06-22T21:28:26.089Z,14.40
2023-06-22T21:31:28.545Z,14.32
2023-06-22T21:34:30.979Z,15.20
2023-06-22T21:37:33.342Z,14.60
2023-06-22T21:40:35.731Z,13.88
2023-06-22T21:43:38.096Z,14.33
2023-06-22T21:46:40.533Z,14.05
2023-06-22T21:49:42.923Z,14.70
2023-06-22T21:52:45.473Z,15.20
2023-06-22T21:55:47.996Z,15.15
2023-06-22T21:58:50.388Z,14.60
2023-06-22T22:01:52.894Z,14.55
2023-06-22T22:04:55.276Z,15.45
2023-06-22T22:07:57.684Z,15.07
2023-06-22T22:11:00.072Z,15.63
2023-06-22T22:14:02.538Z,15.33
2023-06-22T22:17:05.165Z,15.05
2023-06-22T22:20:10.188Z,15.75
2023-06-22T22:23:12.564Z,15.05
2023-06-22T22:26:14.993Z,15.95
2023-06-22T22:29:17.409Z,16.03
2023-06-22T22:32:19.859Z,15.85
2023-06-22T22:35:22.381Z,16.55
2023-06-22T22:38:24.796Z,15.32
2023-06-22T22:41:27.360Z,15.60
2023-06-22T22:44:29.809Z,16.70
2023-06-22T22:47:32.283Z,15.10
2023-06-22T22:50:34.852Z,15.00
2023-06-22T22:53:37.400Z,15.32
2023-06-22T22:56:39.756Z,16.63
2023-06-22T22:59:42.246Z,15.20
2023-06-22T23:02:44.815Z,14.80
2023-06-22T23:05:47.636Z,15.82
2023-06-22T23:08:57.026Z,16.13
2023-06-22T23:11:59.516Z,16.58
2023-06-22T23:15:02.229Z,16.17
2023-06-22T23:18:04.639Z,16.33
2023-06-22T23:21:08.125Z,16.33
2023-06-22T23:24:10.531Z,18.00
2023-06-22T23:27:15.944Z,17.52
2023-06-22T23:30:18.411Z,16.87
2023-06-22T23:33:22.508Z,17.17
2023-06-22T23:36:26.476Z,17.23
2023-06-22T23:39:28.909Z,17.60
2023-06-22T23:42:31.284Z,17.75
2023-06-22T23:45:33.940Z,17.50
2023-06-22T23:48:36.598Z,17.27
2023-06-22T23:51:39.000Z,18.73
2023-06-22T23:54:41.341Z,18.52
2023-06-22T23:57:44.136Z,16.80
